sensor_id;sensor_type;location;lat;lon;timestamp;P1;durP1;ratioP1;P2;durP2;ratioP2
25922;SDS011;13725;51.170;4.442;2024-02-04T00:00:47;46.28;;;18.35;;
25922;SDS011;13725;51.170;4.442;2024-02-04T00:03:13;39.47;;;18.17;;
25922;SDS011;13725;51.170;4.442;2024-02-04T00:05:39;42.38;;;17.20;;
25922;SDS011;13725;51.170;4.442;2024-02-04T00:08:04;42.63;;;17.83;;
25922;SDS011;13725;51.170;4.442;2024-02-04T00:10:30;39.15;;;15.57;;
25922;SDS011;13725;51.170;4.442;2024-02-04T00:12:56;34.40;;;16.13;;
25922;SDS011;13725;51.170;4.442;2024-02-04T00:15:22;42.00;;;15.45;;
25922;SDS011;13725;51.170;4.442;2024-02-04T00:17:47;34.60;;;16.02;;
25922;SDS011;13725;51.170;4.442;2024-02-04T00:20:13;46.45;;;17.27;;
25922;SDS011;13725;51.170;4.442;2024-02-04T00:22:39;44.13;;;16.50;;
25922;SDS011;13725;51.170;4.442;2024-02-04T00:25:05;34.40;;;14.93;;
25922;SDS011;13725;51.170;4.442;2024-02-04T00:27:31;41.13;;;15.68;;
25922;SDS011;13725;51.170;4.442;2024-02-04T00:29:57;37.08;;;14.93;;
25922;SDS011;13725;51.170;4.442;2024-02-04T00:32:24;29.65;;;13.82;;
25922;SDS011;13725;51.170;4.442;2024-02-04T00:34:51;30.55;;;13.57;;
25922;SDS011;13725;51.170;4.442;2024-02-04T00:37:17;43.60;;;15.07;;
25922;SDS011;13725;51.170;4.442;2024-02-04T00:39:43;32.47;;;14.18;;
25922;SDS011;13725;51.170;4.442;2024-02-04T00:42:08;39.60;;;14.25;;
25922;SDS011;13725;51.170;4.442;2024-02-04T00:44:34;41.10;;;14.02;;
25922;SDS011;13725;51.170;4.442;2024-02-04T00:47:00;40.10;;;15.85;;
25922;SDS011;13725;51.170;4.442;2024-02-04T00:49:26;43.60;;;16.58;;
25922;SDS011;13725;51.170;4.442;2024-02-04T00:51:52;37.42;;;14.50;;
25922;SDS011;13725;51.170;4.442;2024-02-04T00:54:18;36.97;;;14.57;;
25922;SDS011;13725;51.170;4.442;2024-02-04T00:56:44;41.88;;;14.65;;
25922;SDS011;13725;51.170;4.442;2024-02-04T00:59:10;41.22;;;16.05;;
25922;SDS011;13725;51.170;4.442;2024-02-04T01:01:37;37.20;;;15.25;;
25922;SDS011;13725;51.170;4.442;2024-02-04T01:04:05;36.50;;;15.25;;
25922;SDS011;13725;51.170;4.442;2024-02-04T01:06:31;40.28;;;16.55;;
25922;SDS011;13725;51.170;4.442;2024-02-04T01:08:57;40.92;;;16.38;;
25922;SDS011;13725;51.170;4.442;2024-02-04T01:11:23;41.45;;;16.80;;
25922;SDS011;13725;51.170;4.442;2024-02-04T01:13:49;41.30;;;15.57;;
25922;SDS011;13725;51.170;4.442;2024-02-04T01:16:14;37.45;;;15.25;;
25922;SDS011;13725;51.170;4.442;2024-02-04T01:18:40;35.67;;;16.15;;
25922;SDS011;13725;51.170;4.442;2024-02-04T01:21:06;40.05;;;15.15;;
25922;SDS011;13725;51.170;4.442;2024-02-04T01:23:33;42.72;;;17.17;;
25922;SDS011;13725;51.170;4.442;2024-02-04T01:26:00;30.58;;;13.63;;
25922;SDS011;13725;51.170;4.442;2024-02-04T01:28:25;35.60;;;14.70;;
25922;SDS011;13725;51.170;4.442;2024-02-04T01:30:51;30.90;;;13.57;;
25922;SDS011;13725;51.170;4.442;2024-02-04T01:33:17;34.20;;;14.63;;
25922;SDS011;13725;51.170;4.442;2024-02-04T01:35:43;34.13;;;14.55;;
25922;SDS011;13725;51.170;4.442;2024-02-04T01:38:08;45.42;;;15.90;;
25922;SDS011;13725;51.170;4.442;2024-02-04T01:40:34;37.85;;;15.18;;
25922;SDS011;13725;51.170;4.442;2024-02-04T01:43:01;39.40;;;15.25;;
25922;SDS011;13725;51.170;4.442;2024-02-04T01:45:26;39.83;;;15.40;;
25922;SDS011;13725;51.170;4.442;2024-02-04T01:47:53;39.10;;;15.95;;
25922;SDS011;13725;51.170;4.442;2024-02-04T01:50:19;40.55;;;16.73;;
25922;SDS011;13725;51.170;4.442;2024-02-04T01:52:45;40.92;;;16.60;;
25922;SDS011;13725;51.170;4.442;2024-02-04T01:55:12;43.70;;;16.83;;
25922;SDS011;13725;51.170;4.442;2024-02-04T01:57:39;41.97;;;17.15;;
25922;SDS011;13725;51.170;4.442;2024-02-04T02:00:05;49.97;;;17.60;;
25922;SDS011;13725;51.170;4.442;2024-02-04T02:02:34;52.08;;;18.35;;
25922;SDS011;13725;51.170;4.442;2024-02-04T02:05:04;57.30;;;18.80;;
25922;SDS011;13725;51.170;4.442;2024-02-04T02:07:30;49.58;;;19.08;;
25922;SDS011;13725;51.170;4.442;2024-02-04T02:09:57;48.22;;;17.48;;
25922;SDS011;13725;51.170;4.442;2024-02-04T02:12:24;56.88;;;19.73;;
25922;SDS011;13725;51.170;4.442;2024-02-04T02:14:56;49.95;;;17.67;;
25922;SDS011;13725;51.170;4.442;2024-02-04T02:17:31;52.40;;;18.63;;
25922;SDS011;13725;51.170;4.442;2024-02-04T02:22:50;62.53;;;18.92;;
25922;SDS011;13725;51.170;4.442;2024-02-04T02:25:26;54.50;;;18.58;;
25922;SDS011;13725;51.170;4.442;2024-02-04T02:27:52;66.15;;;18.33;;
25922;SDS011;13725;51.170;4.442;2024-02-04T02:30:18;54.10;;;18.38;;
25922;SDS011;13725;51.170;4.442;2024-02-04T02:32:44;50.70;;;18.52;;
25922;SDS011;13725;51.170;4.442;2024-02-04T02:35:14;49.50;;;18.92;;
25922;SDS011;13725;51.170;4.442;2024-02-04T02:37:46;56.63;;;19.42;;
25922;SDS011;13725;51.170;4.442;2024-02-04T02:40:21;59.13;;;21.02;;
25922;SDS011;13725;51.170;4.442;2024-02-04T02:43:02;67.38;;;19.08;;
25922;SDS011;13725;51.170;4.442;2024-02-04T02:45:29;57.55;;;19.15;;
25922;SDS011;13725;51.170;4.442;2024-02-04T02:47:56;51.55;;;19.33;;
25922;SDS011;13725;51.170;4.442;2024-02-04T02:50:24;58.97;;;18.95;;
25922;SDS011;13725;51.170;4.442;2024-02-04T02:52:49;55.20;;;20.17;;
25922;SDS011;13725;51.170;4.442;2024-02-04T02:55:15;55.88;;;20.27;;
25922;SDS011;13725;51.170;4.442;2024-02-04T02:57:41;58.10;;;19.88;;
25922;SDS011;13725;51.170;4.442;2024-02-04T03:00:07;67.90;;;20.33;;
25922;SDS011;13725;51.170;4.442;2024-02-04T03:02:34;71.30;;;19.02;;
25922;SDS011;13725;51.170;4.442;2024-02-04T03:05:00;71.38;;;20.00;;
25922;SDS011;13725;51.170;4.442;2024-02-04T03:07:25;72.82;;;21.63;;
25922;SDS011;13725;51.170;4.442;2024-02-04T03:09:52;59.10;;;19.42;;
25922;SDS011;13725;51.170;4.442;2024-02-04T03:12:19;56.35;;;20.08;;
25922;SDS011;13725;51.170;4.442;2024-02-04T03:14:45;54.60;;;21.95;;
25922;SDS011;13725;51.170;4.442;2024-02-04T03:17:11;62.90;;;20.85;;
25922;SDS011;13725;51.170;4.442;2024-02-04T03:19:37;59.60;;;20.67;;
25922;SDS011;13725;51.170;4.442;2024-02-04T03:22:03;59.90;;;20.15;;
25922;SDS011;13725;51.170;4.442;2024-02-04T03:24:30;57.65;;;19.52;;
25922;SDS011;13725;51.170;4.442;2024-02-04T03:26:56;55.85;;;19.73;;
25922;SDS011;13725;51.170;4.442;2024-02-04T03:29:21;61.85;;;20.40;;
25922;SDS011;13725;51.170;4.442;2024-02-04T03:31:48;58.17;;;19.08;;
25922;SDS011;13725;51.170;4.442;2024-02-04T03:34:13;64.55;;;19.17;;
25922;SDS011;13725;51.170;4.442;2024-02-04T03:36:40;55.45;;;19.52;;
25922;SDS011;13725;51.170;4.442;2024-02-04T03:39:06;53.65;;;18.65;;
25922;SDS011;13725;51.170;4.442;2024-02-04T03:41:32;52.30;;;17.80;;
25922;SDS011;13725;51.170;4.442;2024-02-04T03:43:57;47.30;;;18.92;;
25922;SDS011;13725;51.170;4.442;2024-02-04T03:46:23;46.72;;;18.75;;
25922;SDS011;13725;51.170;4.442;2024-02-04T03:48:49;53.50;;;17.63;;
25922;SDS011;13725;51.170;4.442;2024-02-04T03:51:15;50.05;;;16.08;;
25922;SDS011;13725;51.170;4.442;2024-02-04T03:53:42;45.85;;;18.30;;
25922;SDS011;13725;51.170;4.442;2024-02-04T03:56:09;42.58;;;16.15;;
25922;SDS011;13725;51.170;4.442;2024-02-04T03:58:35;43.95;;;15.90;;
25922;SDS011;13725;51.170;4.442;2024-02-04T04:01:01;46.50;;;17.13;;
25922;SDS011;13725;51.170;4.442;2024-02-04T04:03:27;45.33;;;16.52;;
25922;SDS011;13725;51.170;4.442;2024-02-04T04:05:53;37.90;;;15.52;;
25922;SDS011;13725;51.170;4.442;2024-02-04T04:08:19;41.42;;;15.73;;
25922;SDS011;13725;51.170;4.442;2024-02-04T04:10:45;40.50;;;15.65;;
25922;SDS011;13725;51.170;4.442;2024-02-04T04:13:11;36.97;;;15.15;;
25922;SDS011;13725;51.170;4.442;2024-02-04T04:15:37;45.15;;;16.80;;
25922;SDS011;13725;51.170;4.442;2024-02-04T04:18:03;40.35;;;15.70;;
25922;SDS011;13725;51.170;4.442;2024-02-04T04:20:30;36.65;;;15.15;;
25922;SDS011;13725;51.170;4.442;2024-02-04T04:22:55;36.78;;;15.13;;
25922;SDS011;13725;51.170;4.442;2024-02-04T04:25:21;34.50;;;14.68;;
25922;SDS011;13725;51.170;4.442;2024-02-04T04:27:47;34.75;;;14.40;;
25922;SDS011;13725;51.170;4.442;2024-02-04T04:30:12;39.75;;;16.15;;
25922;SDS011;13725;51.170;4.442;2024-02-04T04:32:38;39.67;;;14.10;;
25922;SDS011;13725;51.170;4.442;2024-02-04T04:35:04;37.95;;;15.20;;
25922;SDS011;13725;51.170;4.442;2024-02-04T04:37:30;37.80;;;15.40;;
25922;SDS011;13725;51.170;4.442;2024-02-04T04:39:56;36.17;;;14.27;;
25922;SDS011;13725;51.170;4.442;2024-02-04T04:42:21;41.60;;;15.73;;
25922;SDS011;13725;51.170;4.442;2024-02-04T04:44:47;34.95;;;14.80;;
25922;SDS011;13725;51.170;4.442;2024-02-04T04:47:14;36.13;;;14.90;;
25922;SDS011;13725;51.170;4.442;2024-02-04T04:49:40;41.03;;;14.90;;
25922;SDS011;13725;51.170;4.442;2024-02-04T04:52:06;39.45;;;14.85;;
25922;SDS011;13725;51.170;4.442;2024-02-04T04:54:32;36.88;;;15.52;;
25922;SDS011;13725;51.170;4.442;2024-02-04T04:56:58;37.50;;;15.63;;
25922;SDS011;13725;51.170;4.442;2024-02-04T04:59:24;45.35;;;16.08;;
25922;SDS011;13725;51.170;4.442;2024-02-04T05:01:49;45.05;;;16.30;;
25922;SDS011;13725;51.170;4.442;2024-02-04T05:04:15;40.05;;;15.77;;
25922;SDS011;13725;51.170;4.442;2024-02-04T05:06:44;38.40;;;15.88;;
25922;SDS011;13725;51.170;4.442;2024-02-04T05:09:09;39.63;;;15.73;;
25922;SDS011;13725;51.170;4.442;2024-02-04T05:11:35;35.17;;;14.68;;
25922;SDS011;13725;51.170;4.442;2024-02-04T05:14:01;40.35;;;14.85;;
25922;SDS011;13725;51.170;4.442;2024-02-04T05:16:27;40.50;;;13.93;;
25922;SDS011;13725;51.170;4.442;2024-02-04T05:18:52;36.30;;;13.30;;
25922;SDS011;13725;51.170;4.442;2024-02-04T05:21:18;33.10;;;13.65;;
25922;SDS011;13725;51.170;4.442;2024-02-04T05:23:44;36.20;;;13.00;;
25922;SDS011;13725;51.170;4.442;2024-02-04T05:26:10;28.42;;;12.80;;
25922;SDS011;13725;51.170;4.442;2024-02-04T05:28:35;37.30;;;13.32;;
25922;SDS011;13725;51.170;4.442;2024-02-04T05:31:01;36.03;;;13.75;;
25922;SDS011;13725;51.170;4.442;2024-02-04T05:33:27;38.17;;;13.75;;
25922;SDS011;13725;51.170;4.442;2024-02-04T05:35:53;35.75;;;13.80;;
25922;SDS011;13725;51.170;4.442;2024-02-04T05:38:20;39.67;;;13.63;;
25922;SDS011;13725;51.170;4.442;2024-02-04T05:40:46;33.00;;;13.20;;
25922;SDS011;13725;51.170;4.442;2024-02-04T05:43:12;39.25;;;13.32;;
25922;SDS011;13725;51.170;4.442;2024-02-04T05:45:38;46.42;;;13.80;;
25922;SDS011;13725;51.170;4.442;2024-02-04T05:48:06;40.90;;;13.35;;
25922;SDS011;13725;51.170;4.442;2024-02-04T05:50:32;37.80;;;13.52;;
25922;SDS011;13725;51.170;4.442;2024-02-04T05:52:58;39.05;;;13.77;;
25922;SDS011;13725;51.170;4.442;2024-02-04T05:55:24;37.78;;;12.48;;
25922;SDS011;13725;51.170;4.442;2024-02-04T05:57:50;35.85;;;12.38;;
25922;SDS011;13725;51.170;4.442;2024-02-04T06:00:16;40.70;;;13.35;;
25922;SDS011;13725;51.170;4.442;2024-02-04T06:02:41;34.70;;;11.90;;
25922;SDS011;13725;51.170;4.442;2024-02-04T06:05:13;29.45;;;11.73;;
25922;SDS011;13725;51.170;4.442;2024-02-04T06:07:39;27.17;;;10.45;;
25922;SDS011;13725;51.170;4.442;2024-02-04T06:10:10;33.83;;;11.38;;
25922;SDS011;13725;51.170;4.442;2024-02-04T06:12:36;28.90;;;11.25;;
25922;SDS011;13725;51.170;4.442;2024-02-04T06:15:03;31.58;;;11.05;;
25922;SDS011;13725;51.170;4.442;2024-02-04T06:17:29;26.10;;;10.80;;
25922;SDS011;13725;51.170;4.442;2024-02-04T06:19:55;25.50;;;9.50;;
25922;SDS011;13725;51.170;4.442;2024-02-04T06:22:22;25.27;;;9.27;;
25922;SDS011;13725;51.170;4.442;2024-02-04T06:24:47;25.80;;;8.85;;
25922;SDS011;13725;51.170;4.442;2024-02-04T06:27:15;30.30;;;8.85;;
25922;SDS011;13725;51.170;4.442;2024-02-04T06:29:40;26.20;;;8.55;;
25922;SDS011;13725;51.170;4.442;2024-02-04T06:32:06;26.15;;;9.80;;
25922;SDS011;13725;51.170;4.442;2024-02-04T06:34:32;29.10;;;9.10;;
25922;SDS011;13725;51.170;4.442;2024-02-04T06:36:58;28.88;;;8.70;;
25922;SDS011;13725;51.170;4.442;2024-02-04T06:39:23;23.48;;;7.85;;
25922;SDS011;13725;51.170;4.442;2024-02-04T06:41:49;26.45;;;8.60;;
25922;SDS011;13725;51.170;4.442;2024-02-04T06:44:15;20.05;;;7.68;;
25922;SDS011;13725;51.170;4.442;2024-02-04T06:46:41;22.45;;;7.40;;
25922;SDS011;13725;51.170;4.442;2024-02-04T06:49:06;22.02;;;7.55;;
25922;SDS011;13725;51.170;4.442;2024-02-04T06:51:32;21.80;;;8.32;;
25922;SDS011;13725;51.170;4.442;2024-02-04T06:53:58;35.72;;;10.02;;
25922;SDS011;13725;51.170;4.442;2024-02-04T06:56:24;29.08;;;7.93;;
25922;SDS011;13725;51.170;4.442;2024-02-04T06:58:50;17.75;;;7.15;;
25922;SDS011;13725;51.170;4.442;2024-02-04T07:01:15;21.63;;;7.72;;
25922;SDS011;13725;51.170;4.442;2024-02-04T07:03:41;24.58;;;7.97;;
25922;SDS011;13725;51.170;4.442;2024-02-04T07:06:07;21.60;;;8.05;;
25922;SDS011;13725;51.170;4.442;2024-02-04T07:08:33;22.17;;;8.68;;
25922;SDS011;13725;51.170;4.442;2024-02-04T07:10:58;21.23;;;9.15;;
25922;SDS011;13725;51.170;4.442;2024-02-04T07:13:24;23.45;;;9.95;;
25922;SDS011;13725;51.170;4.442;2024-02-04T07:15:50;19.80;;;8.65;;
25922;SDS011;13725;51.170;4.442;2024-02-04T07:18:15;23.08;;;9.50;;
25922;SDS011;13725;51.170;4.442;2024-02-04T07:20:43;24.30;;;9.80;;
25922;SDS011;13725;51.170;4.442;2024-02-04T07:23:09;26.02;;;8.75;;
25922;SDS011;13725;51.170;4.442;2024-02-04T07:25:35;23.00;;;9.45;;
25922;SDS011;13725;51.170;4.442;2024-02-04T07:28:00;27.17;;;9.30;;
25922;SDS011;13725;51.170;4.442;2024-02-04T07:30:27;23.85;;;9.55;;
25922;SDS011;13725;51.170;4.442;2024-02-04T07:32:53;23.55;;;9.57;;
25922;SDS011;13725;51.170;4.442;2024-02-04T07:35:19;26.52;;;9.48;;
25922;SDS011;13725;51.170;4.442;2024-02-04T07:37:44;28.92;;;9.80;;
25922;SDS011;13725;51.170;4.442;2024-02-04T07:40:10;21.58;;;8.05;;
25922;SDS011;13725;51.170;4.442;2024-02-04T07:42:36;28.30;;;9.68;;
25922;SDS011;13725;51.170;4.442;2024-02-04T07:45:02;24.98;;;9.18;;
25922;SDS011;13725;51.170;4.442;2024-02-04T07:47:34;27.45;;;9.88;;
25922;SDS011;13725;51.170;4.442;2024-02-04T07:50:00;20.70;;;9.45;;
25922;SDS011;13725;51.170;4.442;2024-02-04T07:52:25;19.90;;;9.40;;
25922;SDS011;13725;51.170;4.442;2024-02-04T07:54:51;26.95;;;10.40;;
25922;SDS011;13725;51.170;4.442;2024-02-04T07:57:17;24.02;;;9.15;;
25922;SDS011;13725;51.170;4.442;2024-02-04T07:59:42;25.50;;;9.95;;
25922;SDS011;13725;51.170;4.442;2024-02-04T08:02:08;26.60;;;9.48;;
25922;SDS011;13725;51.170;4.442;2024-02-04T08:04:34;24.90;;;9.25;;
25922;SDS011;13725;51.170;4.442;2024-02-04T08:06:59;19.13;;;8.98;;
25922;SDS011;13725;51.170;4.442;2024-02-04T08:09:25;19.63;;;9.18;;
25922;SDS011;13725;51.170;4.442;2024-02-04T08:11:51;25.42;;;9.07;;
25922;SDS011;13725;51.170;4.442;2024-02-04T08:14:17;25.25;;;8.45;;
25922;SDS011;13725;51.170;4.442;2024-02-04T08:16:44;22.17;;;8.45;;
25922;SDS011;13725;51.170;4.442;2024-02-04T08:19:12;18.60;;;8.10;;
25922;SDS011;13725;51.170;4.442;2024-02-04T08:21:38;23.45;;;8.45;;
25922;SDS011;13725;51.170;4.442;2024-02-04T08:24:04;18.55;;;7.30;;
25922;SDS011;13725;51.170;4.442;2024-02-04T08:26:30;23.52;;;8.60;;
25922;SDS011;13725;51.170;4.442;2024-02-04T08:28:56;15.27;;;7.63;;
25922;SDS011;13725;51.170;4.442;2024-02-04T08:31:22;14.15;;;7.28;;
25922;SDS011;13725;51.170;4.442;2024-02-04T08:33:48;14.65;;;6.93;;
25922;SDS011;13725;51.170;4.442;2024-02-04T08:36:13;20.25;;;7.78;;
25922;SDS011;13725;51.170;4.442;2024-02-04T08:38:39;21.33;;;7.72;;
25922;SDS011;13725;51.170;4.442;2024-02-04T08:41:05;17.77;;;8.15;;
25922;SDS011;13725;51.170;4.442;2024-02-04T08:43:31;17.13;;;7.45;;
25922;SDS011;13725;51.170;4.442;2024-02-04T08:45:57;16.98;;;6.45;;
25922;SDS011;13725;51.170;4.442;2024-02-04T08:48:23;24.50;;;7.38;;
25922;SDS011;13725;51.170;4.442;2024-02-04T08:50:48;15.48;;;6.55;;
25922;SDS011;13725;51.170;4.442;2024-02-04T08:53:14;15.20;;;6.40;;
25922;SDS011;13725;51.170;4.442;2024-02-04T08:55:40;16.33;;;7.47;;
25922;SDS011;13725;51.170;4.442;2024-02-04T08:58:06;17.38;;;6.65;;
25922;SDS011;13725;51.170;4.442;2024-02-04T09:00:31;13.93;;;6.47;;
25922;SDS011;13725;51.170;4.442;2024-02-04T09:02:57;17.95;;;7.32;;
25922;SDS011;13725;51.170;4.442;2024-02-04T09:05:23;13.40;;;6.45;;
25922;SDS011;13725;51.170;4.442;2024-02-04T09:07:49;14.48;;;6.55;;
25922;SDS011;13725;51.170;4.442;2024-02-04T09:10:14;16.35;;;6.63;;
25922;SDS011;13725;51.170;4.442;2024-02-04T09:12:40;13.00;;;5.82;;
25922;SDS011;13725;51.170;4.442;2024-02-04T09:15:06;10.85;;;5.45;;
25922;SDS011;13725;51.170;4.442;2024-02-04T09:17:33;10.57;;;4.88;;
25922;SDS011;13725;51.170;4.442;2024-02-04T09:19:59;10.30;;;5.10;;
25922;SDS011;13725;51.170;4.442;2024-02-04T09:22:25;12.15;;;4.97;;
25922;SDS011;13725;51.170;4.442;2024-02-04T09:24:51;10.02;;;5.35;;
25922;SDS011;13725;51.170;4.442;2024-02-04T09:27:17;13.63;;;5.13;;
25922;SDS011;13725;51.170;4.442;2024-02-04T09:29:43;11.98;;;5.13;;
25922;SDS011;13725;51.170;4.442;2024-02-04T09:32:09;11.80;;;4.82;;
25922;SDS011;13725;51.170;4.442;2024-02-04T09:34:35;19.88;;;5.90;;
25922;SDS011;13725;51.170;4.442;2024-02-04T09:37:00;9.20;;;4.63;;
25922;SDS011;13725;51.170;4.442;2024-02-04T09:39:27;13.32;;;4.90;;
25922;SDS011;13725;51.170;4.442;2024-02-04T09:41:54;10.43;;;4.30;;
25922;SDS011;13725;51.170;4.442;2024-02-04T09:44:22;12.05;;;4.38;;
25922;SDS011;13725;51.170;4.442;2024-02-04T09:46:49;10.25;;;4.28;;
25922;SDS011;13725;51.170;4.442;2024-02-04T09:49:16;14.52;;;4.68;;
25922;SDS011;13725;51.170;4.442;2024-02-04T09:51:42;14.20;;;4.55;;
25922;SDS011;13725;51.170;4.442;2024-02-04T09:54:09;13.88;;;5.47;;
25922;SDS011;13725;51.170;4.442;2024-02-04T09:56:37;13.05;;;4.63;;
25922;SDS011;13725;51.170;4.442;2024-02-04T09:59:03;10.50;;;4.50;;
25922;SDS011;13725;51.170;4.442;2024-02-04T10:01:30;13.23;;;4.65;;
25922;SDS011;13725;51.170;4.442;2024-02-04T10:03:57;12.30;;;4.75;;
25922;SDS011;13725;51.170;4.442;2024-02-04T10:06:23;16.15;;;4.88;;
25922;SDS011;13725;51.170;4.442;2024-02-04T10:08:49;14.65;;;5.43;;
25922;SDS011;13725;51.170;4.442;2024-02-04T10:11:16;11.27;;;4.80;;
25922;SDS011;13725;51.170;4.442;2024-02-04T10:13:43;9.57;;;4.35;;
25922;SDS011;13725;51.170;4.442;2024-02-04T10:16:09;8.48;;;4.68;;
25922;SDS011;13725;51.170;4.442;2024-02-04T10:18:35;17.30;;;4.93;;
25922;SDS011;13725;51.170;4.442;2024-02-04T10:21:01;12.00;;;4.70;;
25922;SDS011;13725;51.170;4.442;2024-02-04T10:23:27;11.15;;;4.35;;
25922;SDS011;13725;51.170;4.442;2024-02-04T10:25:59;9.43;;;5.35;;
25922;SDS011;13725;51.170;4.442;2024-02-04T10:28:25;10.00;;;3.70;;
25922;SDS011;13725;51.170;4.442;2024-02-04T10:30:51;12.82;;;3.83;;
25922;SDS011;13725;51.170;4.442;2024-02-04T10:33:17;12.43;;;3.45;;
25922;SDS011;13725;51.170;4.442;2024-02-04T10:35:43;14.80;;;3.70;;
25922;SDS011;13725;51.170;4.442;2024-02-04T10:38:08;9.77;;;2.80;;
25922;SDS011;13725;51.170;4.442;2024-02-04T10:40:36;10.70;;;3.10;;
25922;SDS011;13725;51.170;4.442;2024-02-04T10:43:03;10.02;;;2.78;;
25922;SDS011;13725;51.170;4.442;2024-02-04T10:45:32;8.77;;;2.70;;
25922;SDS011;13725;51.170;4.442;2024-02-04T10:48:00;10.93;;;2.80;;
25922;SDS011;13725;51.170;4.442;2024-02-04T10:50:26;9.30;;;3.00;;
25922;SDS011;13725;51.170;4.442;2024-02-04T10:52:55;5.18;;;2.38;;
25922;SDS011;13725;51.170;4.442;2024-02-04T10:55:28;6.47;;;2.25;;
25922;SDS011;13725;51.170;4.442;2024-02-04T10:57:56;12.45;;;4.07;;
25922;SDS011;13725;51.170;4.442;2024-02-04T11:00:22;7.68;;;2.80;;
25922;SDS011;13725;51.170;4.442;2024-02-04T11:02:48;9.52;;;2.55;;
25922;SDS011;13725;51.170;4.442;2024-02-04T11:05:16;6.28;;;2.72;;
25922;SDS011;13725;51.170;4.442;2024-02-04T11:07:43;9.40;;;3.47;;
25922;SDS011;13725;51.170;4.442;2024-02-04T11:10:10;10.82;;;3.20;;
25922;SDS011;13725;51.170;4.442;2024-02-04T11:12:36;7.00;;;3.17;;
25922;SDS011;13725;51.170;4.442;2024-02-04T11:15:05;11.05;;;2.85;;
25922;SDS011;13725;51.170;4.442;2024-02-04T11:20:42;7.00;;;2.90;;
25922;SDS011;13725;51.170;4.442;2024-02-04T11:23:35;9.20;;;3.03;;
25922;SDS011;13725;51.170;4.442;2024-02-04T11:26:21;6.82;;;2.80;;
25922;SDS011;13725;51.170;4.442;2024-02-04T11:28:48;10.45;;;3.65;;
25922;SDS011;13725;51.170;4.442;2024-02-04T11:31:14;9.30;;;4.43;;
25922;SDS011;13725;51.170;4.442;2024-02-04T11:33:42;6.93;;;2.90;;
25922;SDS011;13725;51.170;4.442;2024-02-04T11:36:16;7.53;;;3.20;;
25922;SDS011;13725;51.170;4.442;2024-02-04T11:38:43;10.45;;;3.55;;
25922;SDS011;13725;51.170;4.442;2024-02-04T11:41:20;9.65;;;3.35;;
25922;SDS011;13725;51.170;4.442;2024-02-04T11:43:55;13.82;;;3.38;;
25922;SDS011;13725;51.170;4.442;2024-02-04T11:46:21;15.68;;;3.80;;
25922;SDS011;13725;51.170;4.442;2024-02-04T11:48:52;7.38;;;3.05;;
25922;SDS011;13725;51.170;4.442;2024-02-04T11:51:21;7.03;;;3.20;;
25922;SDS011;13725;51.170;4.442;2024-02-04T11:53:52;10.85;;;3.63;;
25922;SDS011;13725;51.170;4.442;2024-02-04T11:56:19;9.38;;;3.80;;
25922;SDS011;13725;51.170;4.442;2024-02-04T11:58:46;9.48;;;3.70;;
25922;SDS011;13725;51.170;4.442;2024-02-04T12:01:12;8.35;;;3.15;;
25922;SDS011;13725;51.170;4.442;2024-02-04T12:03:38;10.68;;;3.40;;
25922;SDS011;13725;51.170;4.442;2024-02-04T12:06:03;7.97;;;3.47;;
25922;SDS011;13725;51.170;4.442;2024-02-04T12:08:31;9.98;;;3.08;;
25922;SDS011;13725;51.170;4.442;2024-02-04T12:10:58;8.75;;;3.60;;
25922;SDS011;13725;51.170;4.442;2024-02-04T12:13:25;8.50;;;4.20;;
25922;SDS011;13725;51.170;4.442;2024-02-04T12:15:53;9.98;;;3.45;;
25922;SDS011;13725;51.170;4.442;2024-02-04T12:18:19;9.93;;;3.22;;
25922;SDS011;13725;51.170;4.442;2024-02-04T12:20:46;13.02;;;3.58;;
25922;SDS011;13725;51.170;4.442;2024-02-04T12:23:16;9.73;;;3.17;;
25922;SDS011;13725;51.170;4.442;2024-02-04T12:25:43;10.52;;;3.15;;
25922;SDS011;13725;51.170;4.442;2024-02-04T12:28:10;8.15;;;2.95;;
25922;SDS011;13725;51.170;4.442;2024-02-04T12:30:36;8.60;;;3.35;;
25922;SDS011;13725;51.170;4.442;2024-02-04T12:33:02;10.52;;;3.42;;
25922;SDS011;13725;51.170;4.442;2024-02-04T12:35:32;7.22;;;2.42;;
25922;SDS011;13725;51.170;4.442;2024-02-04T12:37:58;6.85;;;2.30;;
25922;SDS011;13725;51.170;4.442;2024-02-04T12:40:29;8.48;;;2.33;;
25922;SDS011;13725;51.170;4.442;2024-02-04T12:42:56;8.60;;;2.35;;
25922;SDS011;13725;51.170;4.442;2024-02-04T12:45:27;8.38;;;2.03;;
25922;SDS011;13725;51.170;4.442;2024-02-04T12:47:57;5.78;;;2.08;;
25922;SDS011;13725;51.170;4.442;2024-02-04T12:50:24;8.13;;;2.28;;
25922;SDS011;13725;51.170;4.442;2024-02-04T12:53:03;7.35;;;1.80;;
25922;SDS011;13725;51.170;4.442;2024-02-04T12:55:36;9.27;;;2.50;;
25922;SDS011;13725;51.170;4.442;2024-02-04T12:58:09;15.13;;;2.28;;
25922;SDS011;13725;51.170;4.442;2024-02-04T13:00:40;10.73;;;2.40;;
25922;SDS011;13725;51.170;4.442;2024-02-04T13:03:06;5.38;;;1.75;;
25922;SDS011;13725;51.170;4.442;2024-02-04T13:05:34;7.22;;;2.50;;
25922;SDS011;13725;51.170;4.442;2024-02-04T13:08:01;7.35;;;1.83;;
25922;SDS011;13725;51.170;4.442;2024-02-04T13:10:30;5.60;;;2.05;;
25922;SDS011;13725;51.170;4.442;2024-02-04T13:12:59;9.20;;;2.20;;
25922;SDS011;13725;51.170;4.442;2024-02-04T13:15:29;5.80;;;1.73;;
25922;SDS011;13725;51.170;4.442;2024-02-04T13:17:56;12.10;;;2.25;;
25922;SDS011;13725;51.170;4.442;2024-02-04T13:20:22;5.28;;;2.38;;
25922;SDS011;13725;51.170;4.442;2024-02-04T13:22:48;7.68;;;2.08;;
25922;SDS011;13725;51.170;4.442;2024-02-04T13:25:14;6.13;;;2.33;;
25922;SDS011;13725;51.170;4.442;2024-02-04T13:27:40;8.68;;;2.15;;
25922;SDS011;13725;51.170;4.442;2024-02-04T13:30:07;4.07;;;2.10;;
25922;SDS011;13725;51.170;4.442;2024-02-04T13:32:40;7.40;;;2.38;;
25922;SDS011;13725;51.170;4.442;2024-02-04T13:35:07;4.25;;;2.20;;
25922;SDS011;13725;51.170;4.442;2024-02-04T13:37:36;6.82;;;2.50;;
25922;SDS011;13725;51.170;4.442;2024-02-04T13:40:12;5.25;;;2.10;;
25922;SDS011;13725;51.170;4.442;2024-02-04T13:42:39;6.30;;;2.40;;
25922;SDS011;13725;51.170;4.442;2024-02-04T13:45:05;8.30;;;2.10;;
25922;SDS011;13725;51.170;4.442;2024-02-04T13:47:31;7.15;;;2.45;;
25922;SDS011;13725;51.170;4.442;2024-02-04T13:49:57;8.20;;;2.03;;
25922;SDS011;13725;51.170;4.442;2024-02-04T13:52:23;5.22;;;1.77;;
25922;SDS011;13725;51.170;4.442;2024-02-04T13:54:49;6.55;;;2.20;;
25922;SDS011;13725;51.170;4.442;2024-02-04T13:57:14;4.72;;;2.10;;
25922;SDS011;13725;51.170;4.442;2024-02-04T13:59:40;5.93;;;2.03;;
25922;SDS011;13725;51.170;4.442;2024-02-04T14:02:06;4.63;;;2.13;;
25922;SDS011;13725;51.170;4.442;2024-02-04T14:04:34;5.43;;;2.17;;
25922;SDS011;13725;51.170;4.442;2024-02-04T14:07:00;7.55;;;2.58;;
25922;SDS011;13725;51.170;4.442;2024-02-04T14:09:27;9.00;;;2.30;;
25922;SDS011;13725;51.170;4.442;2024-02-04T14:11:53;6.57;;;2.50;;
25922;SDS011;13725;51.170;4.442;2024-02-04T14:14:24;7.88;;;2.55;;
25922;SDS011;13725;51.170;4.442;2024-02-04T14:16:50;6.10;;;2.45;;
25922;SDS011;13725;51.170;4.442;2024-02-04T14:19:16;12.13;;;2.83;;
25922;SDS011;13725;51.170;4.442;2024-02-04T14:21:43;7.32;;;3.50;;
25922;SDS011;13725;51.170;4.442;2024-02-04T14:24:08;7.05;;;3.03;;
25922;SDS011;13725;51.170;4.442;2024-02-04T14:26:34;6.18;;;2.42;;
25922;SDS011;13725;51.170;4.442;2024-02-04T14:29:00;9.15;;;2.70;;
25922;SDS011;13725;51.170;4.442;2024-02-04T14:31:26;9.70;;;2.80;;
25922;SDS011;13725;51.170;4.442;2024-02-04T14:33:52;8.52;;;2.80;;